createdAt,value
2017-10-05T00:01:04.444Z,100738.17
2017-10-05T00:03:32.138Z,100728.57
2017-10-05T00:05:59.772Z,100730.45
2017-10-05T00:08:27.458Z,100725.22
2017-10-05T00:10:55.046Z,100717.34
2017-10-05T00:13:22.726Z,100712.89
2017-10-05T00:15:50.311Z,100718.13
2017-10-05T00:18:17.959Z,100706.19
2017-10-05T00:20:45.638Z,100698.24
2017-10-05T00:23:14.185Z,100691.58
2017-10-05T00:25:41.891Z,100678.39
2017-10-05T00:28:09.611Z,100674.63
2017-10-05T00:30:37.290Z,100676.59
2017-10-05T00:33:04.879Z,100676.25
2017-10-05T00:35:32.566Z,100681.17
2017-10-05T00:38:00.198Z,100688.56
2017-10-05T00:40:27.801Z,100681.26
2017-10-05T00:42:55.466Z,100686.49
2017-10-05T00:45:23.133Z,100673.88
2017-10-05T00:47:50.794Z,100677.23
2017-10-05T00:50:18.514Z,100672.14
2017-10-05T00:52:46.154Z,100659.30
2017-10-05T00:55:13.815Z,100663.48
2017-10-05T00:57:41.466Z,100651.91
2017-10-05T01:00:09.195Z,100644.72
2017-10-05T01:02:36.834Z,100648.48
2017-10-05T01:05:04.519Z,100644.95
2017-10-05T01:07:32.164Z,100648.56
2017-10-05T01:09:59.803Z,100646.41
2017-10-05T01:12:27.478Z,100627.16
2017-10-05T01:14:55.162Z,100628.63
2017-10-05T01:17:22.779Z,100626.00
2017-10-05T01:19:50.431Z,100617.64
2017-10-05T01:22:18.114Z,100623.97
2017-10-05T01:24:45.770Z,100623.81
2017-10-05T01:27:13.505Z,100625.36
2017-10-05T01:29:41.150Z,100610.59
2017-10-05T01:32:08.765Z,100601.25
2017-10-05T01:34:36.438Z,100585.92
2017-10-05T01:37:04.122Z,100585.17
2017-10-05T01:39:31.703Z,100577.97
2017-10-05T01:41:59.385Z,100567.65
2017-10-05T01:44:27.021Z,100562.80
2017-10-05T01:46:54.712Z,100565.17
2017-10-05T01:49:22.354Z,100572.33
2017-10-05T01:51:49.997Z,100566.41
2017-10-05T01:54:17.641Z,100552.22
2017-10-05T01:56:45.323Z,100558.46
2017-10-05T01:59:12.978Z,100553.71
2017-10-05T02:01:40.666Z,100545.84
2017-10-05T02:04:08.315Z,100543.53
2017-10-05T02:06:36.011Z,100538.94
2017-10-05T02:09:03.690Z,100539.20
2017-10-05T02:11:31.406Z,100530.66
2017-10-05T02:13:59.043Z,100528.46
2017-10-05T02:16:26.677Z,100519.34
2017-10-05T02:18:54.365Z,100503.03
2017-10-05T02:21:22.017Z,100508.05
2017-10-05T02:23:49.714Z,100499.91
2017-10-05T02:26:17.370Z,100479.98
2017-10-05T02:28:45.099Z,100479.59
2017-10-05T02:31:12.751Z,100469.66
2017-10-05T02:33:40.447Z,100461.29
2017-10-05T02:36:08.101Z,100463.25
2017-10-05T02:38:35.791Z,100454.89
2017-10-05T02:41:03.447Z,100450.14
2017-10-05T02:43:31.125Z,100452.36
2017-10-05T02:45:58.773Z,100445.39
2017-10-05T02:48:26.446Z,100452.20
2017-10-05T02:50:54.084Z,100439.98
2017-10-05T02:53:21.770Z,100436.59
2017-10-05T02:55:49.421Z,100434.89
2017-10-05T02:58:17.099Z,100433.72
2017-10-05T03:00:44.748Z,100431.19
2017-10-05T03:03:12.451Z,100429.80
2017-10-05T03:05:40.099Z,100423.31
2017-10-05T03:08:07.780Z,100409.78
2017-10-05T03:10:35.459Z,100399.20
2017-10-05T03:13:03.170Z,100393.63
2017-10-05T03:15:30.824Z,100388.05
2017-10-05T03:17:58.402Z,100375.84
2017-10-05T03:20:26.095Z,100376.57
2017-10-05T03:22:53.680Z,100370.20
2017-10-05T03:25:21.349Z,100363.80
2017-10-05T03:27:49.027Z,100364.38
2017-10-05T03:30:16.701Z,100356.98
2017-10-05T03:32:44.346Z,100354.20
2017-10-05T03:35:12.041Z,100345.27
2017-10-05T03:37:39.704Z,100330.84
2017-10-05T03:40:07.396Z,100329.20
2017-10-05T03:42:35.057Z,100329.20
2017-10-05T03:45:02.750Z,100325.27
2017-10-05T03:47:30.803Z,100316.91
2017-10-05T03:49:58.513Z,100309.38
2017-10-05T03:52:26.170Z,100309.75
2017-10-05T03:54:53.807Z,100302.63
2017-10-05T03:57:21.564Z,100292.14
2017-10-05T03:59:49.291Z,100285.89
2017-10-05T04:02:16.955Z,100286.16
2017-10-05T04:04:44.665Z,100281.72
2017-10-05T04:07:12.348Z,100271.23
2017-10-05T04:09:40.010Z,100263.03
2017-10-05T04:12:07.738Z,100254.31
2017-10-05T04:14:35.403Z,100248.92
2017-10-05T04:17:03.016Z,100248.73
2017-10-05T04:19:30.677Z,100257.92
2017-10-05T04:21:58.298Z,100251.78
2017-10-05T04:24:25.958Z,100252.67
2017-10-05T04:26:53.569Z,100235.78
2017-10-05T04:29:21.226Z,100230.36
2017-10-05T04:31:48.907Z,100225.77
2017-10-05T04:34:16.563Z,100219.38
2017-10-05T04:36:44.261Z,100217.16
2017-10-05T04:39:11.920Z,100215.66
2017-10-05T04:41:39.590Z,100212.08
2017-10-05T04:44:07.273Z,100208.88
2017-10-05T04:46:34.922Z,100205.27
2017-10-05T04:49:02.646Z,100205.52
2017-10-05T04:51:30.299Z,100196.14
2017-10-05T04:53:57.933Z,100190.57
2017-10-05T04:56:25.533Z,100184.42
2017-10-05T04:58:53.178Z,100181.00
2017-10-05T05:01:20.759Z,100170.83
2017-10-05T05:03:48.396Z,100169.76
2017-10-05T05:06:15.985Z,100166.34
2017-10-05T05:08:43.614Z,100159.94
2017-10-05T05:11:11.225Z,100153.73
2017-10-05T05:13:38.859Z,100142.33
2017-10-05T05:16:06.464Z,100137.01
2017-10-05T05:18:34.086Z,100132.22
2017-10-05T05:21:01.675Z,100120.28
2017-10-05T05:23:29.296Z,100109.70
2017-10-05T05:25:56.881Z,100102.06
2017-10-05T05:28:24.508Z,100095.66
2017-10-05T05:30:52.086Z,100094.11
2017-10-05T05:33:19.722Z,100085.84
2017-10-05T05:35:47.370Z,100089.84
2017-10-05T05:38:14.973Z,100077.86
2017-10-05T05:40:42.595Z,100067.53
2017-10-05T05:43:10.189Z,100063.82
2017-10-05T05:45:38.801Z,100061.03
2017-10-05T05:48:06.412Z,100050.30
2017-10-05T05:50:34.061Z,100052.92
2017-10-05T05:53:01.671Z,100046.94
2017-10-05T05:55:29.342Z,100040.37
2017-10-05T05:57:56.964Z,100030.05
2017-10-05T06:00:24.615Z,100019.47
2017-10-05T06:02:52.227Z,100027.31
2017-10-05T06:05:19.960Z,100022.72
2017-10-05T06:07:47.610Z,100019.61
2017-10-05T06:10:15.336Z,100006.30
2017-10-05T06:12:42.989Z,99996.95
2017-10-05T06:15:10.657Z,99996.54
2017-10-05T06:17:38.251Z,99993.23
2017-10-05T06:20:05.959Z,99983.31
2017-10-05T06:22:33.614Z,99989.30
2017-10-05T06:25:01.331Z,99973.39
2017-10-05T06:27:29.005Z,99955.66
2017-10-05T06:29:56.691Z,99962.10
2017-10-05T06:32:24.336Z,99957.92
2017-10-05T06:34:52.021Z,99945.98
2017-10-05T06:37:19.669Z,99934.22
2017-10-05T06:39:47.401Z,99920.12
2017-10-05T06:42:15.051Z,99920.12
2017-10-05T06:44:42.742Z,99912.73
2017-10-05T06:47:10.426Z,99898.88
2017-10-05T06:49:38.234Z,99875.39
2017-10-05T06:52:05.898Z,99881.84
2017-10-05T06:54:33.556Z,99874.87
2017-10-05T06:57:01.241Z,99864.17
2017-10-05T06:59:28.894Z,99853.95
2017-10-05T07:01:56.687Z,99853.52
2017-10-05T07:04:24.322Z,99828.06
2017-10-05T07:06:51.999Z,99818.02
2017-10-05T07:09:19.661Z,99796.45
2017-10-05T07:11:47.529Z,99802.91
2017-10-05T07:14:15.166Z,99800.98
2017-10-05T07:16:42.880Z,99814.23
2017-10-05T07:19:10.536Z,99801.80
2017-10-05T07:21:38.181Z,99776.05
2017-10-05T07:24:06.013Z,99784.41
2017-10-05T07:26:33.710Z,99774.03
2017-10-05T07:29:01.393Z,99776.00
2017-10-05T07:31:29.039Z,99781.79
2017-10-05T07:33:56.697Z,99780.80
2017-10-05T07:36:24.331Z,99768.45
2017-10-05T07:38:52.038Z,99762.67
2017-10-05T07:41:19.680Z,99753.97
2017-10-05T07:43:47.392Z,99742.24
2017-10-05T07:46:15.037Z,99728.46
2017-10-05T07:48:42.698Z,99717.92
2017-10-05T07:51:10.334Z,99714.81
2017-10-05T07:53:38.028Z,99707.42
2017-10-05T07:56:05.669Z,99697.13
2017-10-05T07:58:33.367Z,99693.16
2017-10-05T08:01:01.022Z,99678.70
2017-10-05T08:03:28.719Z,99659.27
2017-10-05T08:05:56.382Z,99648.84
2017-10-05T08:08:24.100Z,99632.79
2017-10-05T08:10:51.725Z,99613.51
2017-10-05T08:13:19.430Z,99602.59
2017-10-05T08:15:47.093Z,99600.16
2017-10-05T08:18:14.770Z,99587.56
2017-10-05T08:20:42.404Z,99583.53
2017-10-05T08:23:10.086Z,99567.61
2017-10-05T08:25:37.721Z,99556.89
2017-10-05T08:28:05.424Z,99540.42
2017-10-05T08:30:33.102Z,99530.12
2017-10-05T08:33:00.815Z,99521.50
2017-10-05T08:35:28.452Z,99513.91
2017-10-05T08:37:56.120Z,99498.39
2017-10-05T08:40:23.773Z,99487.41
2017-10-05T08:42:51.458Z,99480.32
2017-10-05T08:45:19.135Z,99471.78
2017-10-05T08:47:46.862Z,99456.73
2017-10-05T08:50:14.567Z,99446.42
2017-10-05T08:52:42.237Z,99430.73
2017-10-05T08:55:09.876Z,99415.39
2017-10-05T08:57:37.520Z,99404.44
2017-10-05T09:00:05.186Z,99393.51
2017-10-05T09:02:32.822Z,99380.81
2017-10-05T09:05:00.503Z,99372.30
2017-10-05T09:07:28.171Z,99352.59
2017-10-05T09:09:55.856Z,99354.97
2017-10-05T09:12:23.434Z,99342.27
2017-10-05T09:14:51.106Z,99332.30
2017-10-05T09:17:18.757Z,99327.53
2017-10-05T09:19:46.439Z,99310.88
2017-10-05T09:22:14.071Z,99302.48
2017-10-05T09:24:41.756Z,99289.81
2017-10-05T09:27:09.344Z,99283.36
2017-10-05T09:29:36.969Z,99266.55
2017-10-05T09:32:04.615Z,99260.08
2017-10-05T09:34:32.195Z,99241.87
2017-10-05T09:36:59.879Z,99229.63
2017-10-05T09:39:27.531Z,99214.95
2017-10-05T09:41:55.165Z,99207.39
2017-10-05T09:44:22.816Z,99193.30
2017-10-05T09:46:50.435Z,99179.98
2017-10-05T09:49:18.081Z,99162.00
2017-10-05T09:51:45.753Z,99159.93
2017-10-05T09:54:13.402Z,99140.66
2017-10-05T09:56:41.127Z,99139.06
2017-10-05T09:59:08.769Z,99129.14
2017-10-05T10:01:36.442Z,99119.42
2017-10-05T10:04:04.013Z,99109.74
2017-10-05T10:06:31.730Z,99104.23
2017-10-05T10:08:59.375Z,99100.28
2017-10-05T10:11:27.047Z,99077.64
2017-10-05T10:13:54.690Z,99073.55
2017-10-05T10:16:22.366Z,99048.75
2017-10-05T10:18:49.953Z,99052.12
2017-10-05T10:21:17.630Z,99051.53
2017-10-05T10:23:45.272Z,99025.12
2017-10-05T10:26:12.946Z,99019.63
2017-10-05T10:28:40.609Z,99005.52
2017-10-05T10:31:08.276Z,98993.75
2017-10-05T10:33:35.856Z,98980.83
2017-10-05T10:36:03.486Z,98972.74
2017-10-05T10:38:31.132Z,98964.02
2017-10-05T10:40:58.813Z,98960.28
2017-10-05T10:43:26.488Z,98943.31
2017-10-05T10:45:54.140Z,98930.27
2017-10-05T10:48:21.714Z,98929.02
2017-10-05T10:50:49.346Z,98926.63
2017-10-05T10:53:16.953Z,98914.47
2017-10-05T10:55:44.532Z,98910.73
2017-10-05T10:58:12.208Z,98902.16
2017-10-05T11:00:39.812Z,98887.69
2017-10-05T11:03:07.434Z,98895.00
2017-10-05T11:05:35.075Z,98888.22
2017-10-05T11:08:02.704Z,98876.25
2017-10-05T11:10:30.346Z,98874.91
2017-10-05T11:12:58.032Z,98848.18
2017-10-05T11:15:25.682Z,98836.88
2017-10-05T11:17:53.355Z,98833.14
2017-10-05T11:20:20.955Z,98810.13
2017-10-05T11:22:48.642Z,98792.07
2017-10-05T11:25:16.234Z,98777.23
2017-10-05T11:27:43.961Z,98762.00
2017-10-05T11:30:11.546Z,98761.41
2017-10-05T11:32:39.178Z,98752.03
2017-10-05T11:35:06.766Z,98748.27
2017-10-05T11:37:34.454Z,98737.25
2017-10-05T11:40:02.090Z,98722.86
2017-10-05T11:42:29.782Z,98711.64
2017-10-05T11:44:57.442Z,98700.64
2017-10-05T11:47:25.102Z,98688.83
2017-10-05T11:49:52.801Z,98690.62
2017-10-05T11:52:20.459Z,98689.00
2017-10-05T11:54:48.146Z,98659.16
2017-10-05T11:57:15.765Z,98641.52
2017-10-05T11:59:43.441Z,98637.73
2017-10-05T12:02:11.091Z,98618.31
2017-10-05T12:04:38.787Z,98604.91
2017-10-05T12:07:06.426Z,98615.92
2017-10-05T12:09:34.035Z,98602.70
2017-10-05T12:12:01.617Z,98604.31
2017-10-05T12:14:29.238Z,98605.48
2017-10-05T12:16:56.845Z,98591.87
2017-10-05T12:19:24.453Z,98587.27
2017-10-05T12:21:52.057Z,98599.67
2017-10-05T12:24:19.795Z,98604.68
2017-10-05T12:26:47.368Z,98601.08
2017-10-05T12:29:14.983Z,98612.45
2017-10-05T12:31:42.628Z,98607.31
2017-10-05T12:34:10.250Z,98608.31
2017-10-05T12:36:37.850Z,98626.12
2017-10-05T12:39:05.463Z,98696.97
2017-10-05T12:41:33.118Z,98774.28
2017-10-05T12:44:00.777Z,98833.64
2017-10-05T12:46:28.416Z,98876.39
2017-10-05T12:48:56.106Z,98953.12
2017-10-05T12:51:23.747Z,98967.03
2017-10-05T12:53:51.395Z,99055.67
2017-10-05T12:56:19.028Z,99099.33
2017-10-05T12:58:46.610Z,99131.06
2017-10-05T13:01:14.218Z,99213.77
2017-10-05T13:03:41.807Z,99215.59
2017-10-05T13:06:10.366Z,99252.94
2017-10-05T13:08:38.004Z,99292.70
2017-10-05T13:11:05.688Z,99320.63
2017-10-05T13:13:33.283Z,99373.72
2017-10-05T13:16:00.923Z,99416.52
2017-10-05T13:18:28.570Z,99430.18
2017-10-05T13:20:56.192Z,99463.12
2017-10-05T13:23:23.772Z,99502.86
2017-10-05T13:25:52.617Z,99536.27
2017-10-05T13:28:20.190Z,99548.02
2017-10-05T13:30:47.866Z,99589.50
2017-10-05T13:33:15.448Z,99585.48
2017-10-05T13:35:43.061Z,99618.02
2017-10-05T13:38:10.647Z,99640.46
2017-10-05T13:40:38.276Z,99670.61
2017-10-05T13:43:05.890Z,99679.35
2017-10-05T13:45:33.538Z,99699.98
2017-10-05T13:48:01.149Z,99707.19
2017-10-05T13:50:28.815Z,99731.31
2017-10-05T13:52:56.493Z,99713.72
2017-10-05T13:55:24.149Z,99750.41
2017-10-05T13:57:51.772Z,99757.08
2017-10-05T14:00:19.369Z,99772.07
2017-10-05T14:02:46.991Z,99766.31
2017-10-05T14:05:14.606Z,99794.44
2017-10-05T14:07:46.227Z,99813.67
2017-10-05T14:10:13.823Z,99818.82
2017-10-05T14:12:41.430Z,99826.81
2017-10-05T14:15:09.006Z,99850.41
2017-10-05T14:17:36.713Z,99852.69
2017-10-05T14:20:04.283Z,99859.27
2017-10-05T14:22:31.975Z,99874.90
2017-10-05T14:24:59.550Z,99880.23
2017-10-05T14:27:27.156Z,99894.42
2017-10-05T14:29:54.731Z,99903.55
2017-10-05T14:32:22.621Z,99904.97
2017-10-05T14:34:50.272Z,99904.98
2017-10-05T14:37:17.863Z,99912.52
2017-10-05T14:39:45.484Z,99938.56
2017-10-05T14:42:13.079Z,99953.77
2017-10-05T14:44:40.728Z,99953.96
2017-10-05T14:47:08.297Z,99954.44
2017-10-05T14:49:35.914Z,99961.34
2017-10-05T14:52:03.520Z,99977.97
2017-10-05T14:54:31.148Z,99970.98
2017-10-05T14:56:58.725Z,99973.31
2017-10-05T14:59:26.335Z,99984.26
2017-10-05T15:01:53.929Z,99996.03
2017-10-05T15:04:21.541Z,99991.38
2017-10-05T15:06:49.148Z,100004.44
2017-10-05T15:09:16.885Z,100012.27
2017-10-05T15:11:44.474Z,100023.34
2017-10-05T15:14:12.094Z,100026.52
2017-10-05T15:16:39.701Z,100029.31
2017-10-05T15:19:07.401Z,100040.86
2017-10-05T15:21:35.037Z,100043.02
2017-10-05T15:24:02.680Z,100041.94
2017-10-05T15:26:30.308Z,100050.87
2017-10-05T15:28:58.047Z,100049.56
2017-10-05T15:31:25.738Z,100057.52
2017-10-05T15:33:53.330Z,100058.02
2017-10-05T15:36:21.018Z,100069.39
2017-10-05T15:38:48.663Z,100074.58
2017-10-05T15:41:16.456Z,100066.23
2017-10-05T15:43:44.126Z,100074.77
2017-10-05T15:46:11.823Z,100085.92
2017-10-05T15:48:39.468Z,100098.14
2017-10-05T15:51:07.153Z,100094.63
2017-10-05T15:53:34.843Z,100106.59
2017-10-05T15:56:02.513Z,100103.80
2017-10-05T15:58:30.169Z,100102.13
2017-10-05T16:00:57.860Z,100106.91
2017-10-05T16:03:25.503Z,100101.05
2017-10-05T16:05:53.186Z,100094.34
2017-10-05T16:08:20.834Z,100115.63
2017-10-05T16:10:48.531Z,100107.66
2017-10-05T16:13:16.171Z,100113.72
2017-10-05T16:15:43.898Z,100104.55
2017-10-05T16:18:11.568Z,100123.13
2017-10-05T16:20:39.235Z,100123.21
2017-10-05T16:23:06.903Z,100121.70
2017-10-05T16:25:34.561Z,100132.02
2017-10-05T16:28:03.153Z,100132.02
2017-10-05T16:30:30.795Z,100133.66
2017-10-05T16:32:58.464Z,100138.25
2017-10-05T16:35:26.102Z,100139.39
2017-10-05T16:37:53.783Z,100146.94
2017-10-05T16:40:21.419Z,100139.26
2017-10-05T16:42:49.099Z,100149.91
2017-10-05T16:45:16.753Z,100155.23
2017-10-05T16:47:44.451Z,100156.71
2017-10-05T16:50:12.112Z,100159.47
2017-10-05T16:52:39.830Z,100164.80
2017-10-05T16:55:07.491Z,100182.16
2017-10-05T16:57:35.152Z,100176.27
2017-10-05T17:00:02.810Z,100184.39
2017-10-05T17:02:30.490Z,100182.17
2017-10-05T17:04:58.154Z,100191.48
2017-10-05T17:07:25.843Z,100199.25
2017-10-05T17:09:53.488Z,100200.92
2017-10-05T17:12:21.201Z,100202.55
2017-10-05T17:14:48.858Z,100209.03
2017-10-05T17:17:16.495Z,100211.08
2017-10-05T17:19:44.125Z,100218.80
2017-10-05T17:22:11.792Z,100219.83
2017-10-05T17:24:39.474Z,100217.95
2017-10-05T17:27:07.162Z,100228.81
2017-10-05T17:29:34.778Z,100234.38
2017-10-05T17:32:02.365Z,100244.55
2017-10-05T17:34:29.990Z,100256.33
2017-10-05T17:36:57.581Z,100263.22
2017-10-05T17:39:25.214Z,100263.78
2017-10-05T17:41:52.813Z,100266.48
2017-10-05T17:44:20.438Z,100260.08
2017-10-05T17:46:48.027Z,100256.54
2017-10-05T17:49:15.655Z,100262.12
2017-10-05T17:51:43.244Z,100266.05
2017-10-05T17:54:10.866Z,100272.70
2017-10-05T17:56:38.460Z,100268.68
2017-10-05T17:59:06.071Z,100289.33
2017-10-05T18:01:33.661Z,100285.06
2017-10-05T18:04:01.287Z,100286.70
2017-10-05T18:06:28.883Z,100299.83
2017-10-05T18:08:56.494Z,100291.47
2017-10-05T18:11:24.073Z,100294.00
2017-10-05T18:13:51.667Z,100298.77
2017-10-05T18:16:19.300Z,100299.28
2017-10-05T18:18:46.889Z,100298.05
2017-10-05T18:21:14.527Z,100301.58
2017-10-05T18:23:42.108Z,100305.54
2017-10-05T18:26:10.616Z,100299.83
2017-10-05T18:28:38.212Z,100308.44
2017-10-05T18:31:05.859Z,100308.50
2017-10-05T18:33:33.446Z,100319.42
2017-10-05T18:36:01.070Z,100310.80
2017-10-05T18:38:28.648Z,100315.88
2017-10-05T18:40:56.281Z,100314.23
2017-10-05T18:43:23.871Z,100320.89
2017-10-05T18:45:51.506Z,100321.05
2017-10-05T18:48:19.100Z,100316.70
2017-10-05T18:50:46.882Z,100321.20
2017-10-05T18:53:14.472Z,100326.49
2017-10-05T18:55:42.104Z,100328.31
2017-10-05T18:58:09.694Z,100334.31
2017-10-05T19:00:37.311Z,100338.63
2017-10-05T19:03:04.948Z,100336.00
2017-10-05T19:05:32.577Z,100340.75
2017-10-05T19:08:00.178Z,100343.86
2017-10-05T19:10:27.820Z,100339.91
2017-10-05T19:12:56.170Z,100355.06
2017-10-05T19:15:23.844Z,100347.55
2017-10-05T19:17:51.474Z,100353.11
2017-10-05T19:20:19.089Z,100347.89
2017-10-05T19:22:46.804Z,100359.27
2017-10-05T19:25:14.418Z,100376.33
2017-10-05T19:27:42.046Z,100368.05
2017-10-05T19:30:09.646Z,100381.14
2017-10-05T19:32:37.315Z,100385.25
2017-10-05T19:35:04.956Z,100382.77
2017-10-05T19:37:34.546Z,100391.70
2017-10-05T19:40:05.004Z,100392.83
2017-10-05T19:42:34.808Z,100396.72
2017-10-05T19:45:03.866Z,100400.33
2017-10-05T19:47:33.544Z,100406.05
2017-10-05T19:50:02.819Z,100403.53
2017-10-05T19:52:30.662Z,100395.64
2017-10-05T19:54:58.325Z,100407.29
2017-10-05T19:57:25.998Z,100409.81
2017-10-05T19:59:53.580Z,100408.08
2017-10-05T20:02:21.286Z,100412.18
2017-10-05T20:04:48.958Z,100414.17
2017-10-05T20:07:16.681Z,100404.40
2017-10-05T20:09:44.319Z,100400.64
2017-10-05T20:12:12.024Z,100406.42
2017-10-05T20:14:49.611Z,100406.09
2017-10-05T20:17:37.938Z,100403.80
2017-10-05T20:20:11.237Z,100408.80
2017-10-05T20:22:39.769Z,100399.63
2017-10-05T20:25:13.027Z,100413.37
2017-10-05T20:27:47.294Z,100412.13
2017-10-05T20:30:20.449Z,100420.22
2017-10-05T20:35:45.328Z,100415.13
2017-10-05T20:38:12.995Z,100424.94
2017-10-05T20:40:40.638Z,100422.46
2017-10-05T20:43:08.248Z,100423.55
2017-10-05T20:45:35.895Z,100427.09
2017-10-05T20:48:03.550Z,100423.41
2017-10-05T20:50:31.227Z,100417.58
2017-10-05T20:52:58.867Z,100427.09
2017-10-05T20:55:26.559Z,100421.94
2017-10-05T20:57:54.167Z,100436.13
2017-10-05T21:00:21.861Z,100437.45
2017-10-05T21:02:49.515Z,100443.20
2017-10-05T21:05:17.191Z,100443.13
2017-10-05T21:07:44.844Z,100443.69
2017-10-05T21:10:12.470Z,100440.16
2017-10-05T21:12:40.135Z,100431.31
2017-10-05T21:15:07.822Z,100442.59
2017-10-05T21:17:35.462Z,100438.72
2017-10-05T21:20:03.155Z,100435.36
2017-10-05T21:22:30.810Z,100437.66
2017-10-05T21:24:58.447Z,100437.73
2017-10-05T21:27:27.056Z,100448.45
2017-10-05T21:29:54.744Z,100450.19
2017-10-05T21:32:22.361Z,100457.26
2017-10-05T21:34:49.972Z,100446.20
2017-10-05T21:37:17.560Z,100445.64
2017-10-05T21:39:45.194Z,100444.59
2017-10-05T21:42:12.786Z,100455.31
2017-10-05T21:44:40.445Z,100453.28
2017-10-05T21:47:08.123Z,100464.98
2017-10-05T21:49:35.790Z,100458.36
2017-10-05T21:52:03.478Z,100459.26
2017-10-05T21:54:31.074Z,100466.85
2017-10-05T21:56:58.755Z,100467.75
2017-10-05T21:59:26.413Z,100469.38
2017-10-05T22:01:54.099Z,100478.55
2017-10-05T22:04:21.709Z,100474.78
2017-10-05T22:06:49.415Z,100474.11
2017-10-05T22:09:17.078Z,100473.80
2017-10-05T22:11:44.760Z,100471.85
2017-10-05T22:14:12.354Z,100461.02
2017-10-05T22:16:40.042Z,100457.19
2017-10-05T22:19:07.708Z,100469.02
2017-10-05T22:21:35.411Z,100465.27
2017-10-05T22:24:03.058Z,100459.22
2017-10-05T22:26:30.747Z,100468.05
2017-10-05T22:28:58.424Z,100461.36
2017-10-05T22:31:26.214Z,100457.75
2017-10-05T22:33:53.855Z,100456.16
2017-10-05T22:36:21.623Z,100462.62
2017-10-05T22:38:49.264Z,100466.53
2017-10-05T22:41:16.928Z,100457.20
2017-10-05T22:43:44.644Z,100461.53
2017-10-05T22:46:12.226Z,100458.67
2017-10-05T22:48:39.894Z,100462.61
2017-10-05T22:51:07.486Z,100458.82
2017-10-05T22:53:35.164Z,100463.52
2017-10-05T22:56:02.803Z,100462.47
2017-10-05T22:58:30.489Z,100460.33
2017-10-05T23:00:58.121Z,100459.35
2017-10-05T23:03:25.796Z,100447.81
2017-10-05T23:05:53.441Z,100448.03
2017-10-05T23:08:21.138Z,100452.88
2017-10-05T23:10:48.806Z,100454.77
2017-10-05T23:13:16.481Z,100456.16
2017-10-05T23:15:44.124Z,100449.91
2017-10-05T23:18:11.741Z,100452.39
2017-10-05T23:20:39.405Z,100462.77
2017-10-05T23:23:07.095Z,100463.03
2017-10-05T23:25:34.735Z,100460.97
2017-10-05T23:28:02.359Z,100462.62
2017-10-05T23:30:29.949Z,100458.79
2017-10-05T23:32:57.533Z,100459.16
2017-10-05T23:35:25.211Z,100457.95
2017-10-05T23:37:52.856Z,100459.34
2017-10-05T23:40:20.523Z,100454.99
2017-10-05T23:42:48.169Z,100460.75
2017-10-05T23:45:15.839Z,100461.31
2017-10-05T23:47:43.467Z,100461.88
2017-10-05T23:50:11.087Z,100456.49
2017-10-05T23:52:38.732Z,100457.40
2017-10-05T23:55:06.430Z,100457.63
2017-10-05T23:57:34.083Z,100452.55
